Time;durP1;ratioP1;P1;durP2;ratioP2;P2;SDS_P1;SDS_P2;PMS_P1;PMS_P2;Temp;Humidity;BMP_temperature;BMP_pressure;BME280_temperature;BME280_humidity;BME280_pressure;Samples;Min_cycle;Max_cycle;Signal;HPM_P1;HPM_P2
2022/01/05 00:01:00;;;;;;;;;;;;;;;3.33;66.90;100703.41;7363678;19;19918;-53
2022/01/05 00:03:26;;;;;;;;;;;;;;;3.35;66.94;100714.63;7357996;19;19923;-58
2022/01/05 00:05:51;;;;;;;;;;;;;;;3.36;66.80;100716.34;7357707;19;19931;-55
2022/01/05 00:08:18;;;;;;;;;;;;;;;3.37;66.75;100718.06;7354922;19;21303;-54
2022/01/05 00:10:44;;;;;;;;;;;;;;;3.36;66.95;100716.34;7356508;19;19974;-54
2022/01/05 00:13:09;;;;;;;;;;;;;;;3.35;66.76;100718.94;7364527;19;20410;-54
2022/01/05 00:15:34;;;;;;;;;;;;;;;3.32;66.83;100714.59;7360408;19;19967;-53
2022/01/05 00:18:00;;;;;;;;;;;;;;;3.31;66.73;100712.88;7359007;19;19922;-54
2022/01/05 00:20:25;;;;;;;;;;;;;;;3.28;66.50;100705.09;7362113;19;20940;-57
2022/01/05 00:22:50;;;;;;;;;;;;;;;3.26;66.96;100713.69;7362938;19;20345;-57
2022/01/05 00:25:15;;;;;;;;;;;;;;;3.23;66.75;100704.19;7361353;19;19915;-54
2022/01/05 00:27:41;;;;;;;;;;;;;;;3.21;66.76;100711.06;7362060;19;19922;-55
2022/01/05 00:30:07;;;;;;;;;;;;;;;3.18;66.92;100721.34;7360319;19;19930;-50
2022/01/05 00:32:32;;;;;;;;;;;;;;;3.15;66.94;100721.34;7359417;19;19954;-54
2022/01/05 00:34:57;;;;;;;;;;;;;;;3.11;66.83;100715.28;7356504;19;19994;-52
2022/01/05 00:37:23;;;;;;;;;;;;;;;3.08;67.01;100716.97;7355215;19;20649;-53
2022/01/05 00:39:48;;;;;;;;;;;;;;;3.04;66.80;100717.81;7357241;19;19926;-54
2022/01/05 00:42:14;;;;;;;;;;;;;;;3.02;66.84;100715.22;7357789;19;19918;-53
2022/01/05 00:44:39;;;;;;;;;;;;;;;3.00;67.19;100711.78;7356285;19;19978;-54
2022/01/05 00:47:05;;;;;;;;;;;;;;;3.00;67.05;100710.91;7356621;19;20502;-53
2022/01/05 00:49:30;;;;;;;;;;;;;;;3.02;67.41;100714.34;7352359;19;19943;-52
2022/01/05 00:51:56;;;;;;;;;;;;;;;3.02;67.37;100704.91;7360186;19;19915;-53
2022/01/05 00:54:21;;;;;;;;;;;;;;;3.05;67.25;100711.81;7360567;19;19929;-52
2022/01/05 00:56:46;;;;;;;;;;;;;;;3.07;67.40;100717.84;7359360;19;19933;-50
2022/01/05 00:59:12;;;;;;;;;;;;;;;3.09;67.37;100717.00;7354888;19;19947;-57
2022/01/05 01:01:37;;;;;;;;;;;;;;;3.12;67.36;100716.16;7365313;19;19918;-54
2022/01/05 01:04:03;;;;;;;;;;;;;;;3.14;67.47;100719.59;7358036;19;19922;-54
2022/01/05 01:06:28;;;;;;;;;;;;;;;3.16;67.25;100728.25;7359155;19;19940;-56
2022/01/05 01:08:53;;;;;;;;;;;;;;;3.15;67.51;100723.06;7359607;19;19918;-54
2022/01/05 01:11:18;;;;;;;;;;;;;;;3.14;67.05;100724.75;7360107;19;19919;-54
2022/01/05 01:13:44;;;;;;;;;;;;;;;3.13;66.90;100723.03;7356233;19;19944;-52
2022/01/05 01:16:10;;;;;;;;;;;;;;;3.10;66.95;100718.72;7360554;19;19923;-52
2022/01/05 01:18:35;;;;;;;;;;;;;;;3.08;67.02;100720.41;7360826;19;19934;-54
2022/01/05 01:21:01;;;;;;;;;;;;;;;3.05;67.27;100715.25;7361727;19;20799;-54
2022/01/05 01:23:27;;;;;;;;;;;;;;;3.04;66.87;100708.38;7362765;19;19923;-57
2022/01/05 01:25:53;;;;;;;;;;;;;;;3.01;67.15;100710.91;7358713;19;19952;-55
2022/01/05 01:28:19;;;;;;;;;;;;;;;2.97;66.91;100705.72;7362407;19;20007;-54
2022/01/05 01:30:44;;;;;;;;;;;;;;;2.93;67.05;100717.72;7359814;19;19939;-54
2022/01/05 01:33:10;;;;;;;;;;;;;;;2.90;66.91;100714.25;7362702;19;19922;-53
2022/01/05 01:35:35;;;;;;;;;;;;;;;2.88;67.02;100715.94;7357800;19;19907;-56
2022/01/05 01:38:00;;;;;;;;;;;;;;;2.84;67.04;100710.78;7362382;19;19918;-54
2022/01/05 01:40:26;;;;;;;;;;;;;;;2.81;66.82;100710.75;7361783;19;19915;-54
2022/01/05 01:42:51;;;;;;;;;;;;;;;2.79;66.95;100709.00;7360538;19;19925;-54
2022/01/05 01:45:16;;;;;;;;;;;;;;;2.65;66.94;100680.53;7359575;19;19918;-54
2022/01/05 01:47:42;;;;;;;;;;;;;;;2.73;67.34;100703.78;7361601;19;19914;-53
2022/01/05 01:50:09;;;;;;;;;;;;;;;2.71;67.07;100702.91;7363680;19;19934;-53
2022/01/05 01:52:34;;;;;;;;;;;;;;;2.67;67.04;100714.03;7360625;19;19927;-57
2022/01/05 01:55:00;;;;;;;;;;;;;;;2.64;67.18;100702.00;7360620;19;19953;-54
2022/01/05 01:57:27;;;;;;;;;;;;;;;2.63;67.34;100705.41;7360018;19;19947;-54
2022/01/05 01:59:52;;;;;;;;;;;;;;;2.60;66.94;100705.38;7361757;19;19921;-51
2022/01/05 02:02:17;;;;;;;;;;;;;;;2.53;67.00;100698.44;7360101;19;19960;-52
2022/01/05 02:04:44;;;;;;;;;;;;;;;2.56;67.28;100703.63;7360542;19;19914;-55
2022/01/05 02:07:09;;;;;;;;;;;;;;;2.54;67.18;100705.34;7359121;19;19935;-51
2022/01/05 02:09:35;;;;;;;;;;;;;;;2.52;67.10;100699.28;7360204;19;19910;-53
2022/01/05 02:12:00;;;;;;;;;;;;;;;2.49;67.25;100704.44;7363854;19;19919;-52
2022/01/05 02:14:26;;;;;;;;;;;;;;;2.45;67.23;100706.09;7359452;19;19918;-54
2022/01/05 02:16:51;;;;;;;;;;;;;;;2.44;67.51;100713.81;7360756;19;19965;-51
2022/01/05 02:19:17;;;;;;;;;;;;;;;2.40;67.07;100707.75;7354288;19;19922;-55
2022/01/05 02:21:42;;;;;;;;;;;;;;;2.37;67.43;100701.69;7365920;19;20310;-57
2022/01/05 02:24:08;;;;;;;;;;;;;;;2.33;67.34;100701.69;7366757;19;19941;-56
2022/01/05 02:26:34;;;;;;;;;;;;;;;2.30;67.02;100696.50;7364556;19;19914;-56
2022/01/05 02:29:00;;;;;;;;;;;;;;;2.27;67.54;100693.00;7365173;19;20371;-53
2022/01/05 02:31:26;;;;;;;;;;;;;;;2.24;67.51;100699.00;7365417;19;19985;-54
2022/01/05 02:33:51;;;;;;;;;;;;;;;2.20;67.21;100704.97;7362325;19;19958;-50
2022/01/05 02:36:20;;;;;;;;;;;;;;;2.17;67.35;100720.38;7366287;19;20561;-53
2022/01/05 02:38:46;;;;;;;;;;;;;;;2.14;67.42;100722.94;7365225;19;20456;-50
2022/01/05 02:41:11;;;;;;;;;;;;;;;2.13;67.44;100733.19;7365982;19;19915;-49
2022/01/05 02:43:37;;;;;;;;;;;;;;;2.10;67.28;100734.03;7363120;19;19979;-51
2022/01/05 02:46:03;;;;;;;;;;;;;;;2.07;67.32;100739.13;7367306;19;19929;-54
2022/01/05 02:48:28;;;;;;;;;;;;;;;2.04;67.36;100729.69;7362643;19;19978;-54
2022/01/05 02:50:57;;;;;;;;;;;;;;;2.02;67.57;100721.06;7346828;19;19926;-53
2022/01/05 02:53:23;;;;;;;;;;;;;;;1.99;67.46;100722.75;7361736;19;19922;-55
2022/01/05 02:55:48;;;;;;;;;;;;;;;1.95;67.42;100723.53;7361974;19;19923;-52
2022/01/05 02:58:14;;;;;;;;;;;;;;;1.93;67.40;100727.81;7348319;19;19926;-52
2022/01/05 03:00:39;;;;;;;;;;;;;;;1.91;67.83;100734.66;7359891;19;19929;-54
2022/01/05 03:03:04;;;;;;;;;;;;;;;1.89;67.38;100738.94;7361455;19;19919;-55
2022/01/05 03:05:30;;;;;;;;;;;;;;;1.85;67.77;100747.44;7358799;19;19915;-53
2022/01/05 03:07:55;;;;;;;;;;;;;;;1.84;67.92;100762.03;7362905;19;20078;-51
2022/01/05 03:10:20;;;;;;;;;;;;;;;1.81;67.98;100761.97;7356725;19;19923;-55
2022/01/05 03:12:46;;;;;;;;;;;;;;;1.79;67.59;100754.25;7357577;19;19919;-55
2022/01/05 03:15:11;;;;;;;;;;;;;;;1.77;67.66;100768.81;7357512;19;19922;-56
2022/01/05 03:17:37;;;;;;;;;;;;;;;1.74;67.90;100773.91;7362082;19;19914;-53
2022/01/05 03:20:02;;;;;;;;;;;;;;;1.72;67.72;100773.00;7355911;19;19927;-56
2022/01/05 03:22:28;;;;;;;;;;;;;;;1.70;67.67;100779.84;7360391;19;19935;-54
2022/01/05 03:24:53;;;;;;;;;;;;;;;1.68;68.07;100785.84;7361989;19;20898;-54
2022/01/05 03:27:19;;;;;;;;;;;;;;;1.68;68.12;100791.84;7355891;19;19931;-53
2022/01/05 03:29:44;;;;;;;;;;;;;;;1.65;68.18;100789.22;7358795;19;19945;-54
2022/01/05 03:32:10;;;;;;;;;;;;;;;1.64;68.08;100787.50;7358555;19;19948;-52
2022/01/05 03:34:37;;;;;;;;;;;;;;;1.62;68.19;100791.72;7362634;19;19918;-51
2022/01/05 03:37:02;;;;;;;;;;;;;;;1.62;68.12;100788.28;7361514;19;19911;-52
2022/01/05 03:39:28;;;;;;;;;;;;;;;1.60;67.80;100788.28;7364800;19;19914;-53
2022/01/05 03:41:53;;;;;;;;;;;;;;;1.58;68.32;100792.56;7367045;19;19910;-53
2022/01/05 03:44:18;;;;;;;;;;;;;;;1.57;68.04;100788.22;7363834;19;19935;-53
2022/01/05 03:46:44;;;;;;;;;;;;;;;1.56;67.88;100781.34;7365103;19;19926;-54
2022/01/05 03:49:09;;;;;;;;;;;;;;;1.56;68.05;100794.22;7364603;19;19911;-55
2022/01/05 03:51:34;;;;;;;;;;;;;;;1.53;67.92;100789.91;7365396;19;20416;-55
2022/01/05 03:54:00;;;;;;;;;;;;;;;1.54;68.35;100793.34;7368669;19;19941;-52
2022/01/05 03:56:25;;;;;;;;;;;;;;;1.53;67.95;100794.19;7366427;19;20151;-56
2022/01/05 03:58:50;;;;;;;;;;;;;;;1.53;68.36;100805.34;7364758;19;19943;-50
2022/01/05 04:01:16;;;;;;;;;;;;;;;1.55;68.61;100805.38;7368214;19;19932;-53
2022/01/05 04:03:41;;;;;;;;;;;;;;;1.55;68.54;100805.38;7365092;19;19910;-57
2022/01/05 04:06:06;;;;;;;;;;;;;;;1.58;68.58;100812.28;7359698;19;19918;-51
2022/01/05 04:08:32;;;;;;;;;;;;;;;1.58;68.25;100804.56;7365705;19;19914;-53
2022/01/05 04:10:57;;;;;;;;;;;;;;;1.58;68.28;100810.56;7356530;19;19910;-54
2022/01/05 04:13:23;;;;;;;;;;;;;;;1.59;68.42;100814.88;7364459;19;19922;-53
2022/01/05 04:15:48;;;;;;;;;;;;;;;1.59;68.69;100820.00;7364870;19;19914;-55
2022/01/05 04:18:13;;;;;;;;;;;;;;;1.60;68.49;100823.44;7361236;19;19903;-55
2022/01/05 04:20:39;;;;;;;;;;;;;;;1.61;68.67;100825.19;7365880;19;20581;-55
2022/01/05 04:23:04;;;;;;;;;;;;;;;1.61;68.61;100820.91;7363215;19;21489;-53
2022/01/05 04:25:31;;;;;;;;;;;;;;;1.62;68.60;100827.75;7363926;19;19919;-53
2022/01/05 04:27:56;;;;;;;;;;;;;;;1.62;68.54;100843.22;7366127;19;19935;-51
2022/01/05 04:30:22;;;;;;;;;;;;;;;1.62;68.63;100848.34;7364530;19;19922;-54
2022/01/05 04:32:47;;;;;;;;;;;;;;;1.62;68.36;100837.19;7367735;19;19943;-52
2022/01/05 04:35:14;;;;;;;;;;;;;;;1.64;68.62;100844.13;7366456;19;19926;-51
2022/01/05 04:37:40;;;;;;;;;;;;;;;1.65;68.50;100843.28;7366925;19;19939;-53
2022/01/05 04:40:05;;;;;;;;;;;;;;;1.68;68.62;100848.47;7365007;19;20362;-51
2022/01/05 04:42:30;;;;;;;;;;;;;;;1.71;68.86;100852.78;7368085;19;20027;-53
2022/01/05 04:44:56;;;;;;;;;;;;;;;1.74;68.93;100855.44;7364456;19;20348;-52
2022/01/05 04:47:21;;;;;;;;;;;;;;;1.79;69.21;100862.38;7362692;19;19921;-54
2022/01/05 04:49:47;;;;;;;;;;;;;;;1.84;68.80;100861.59;7367038;19;19934;-52
2022/01/05 04:52:12;;;;;;;;;;;;;;;1.86;68.83;100852.16;7365400;19;19945;-55
2022/01/05 04:54:37;;;;;;;;;;;;;;;1.91;69.03;100863.41;7365367;19;20045;-52
2022/01/05 04:57:03;;;;;;;;;;;;;;;1.93;69.16;100872.91;7364704;19;19953;-51
2022/01/05 04:59:28;;;;;;;;;;;;;;;1.97;69.20;100876.38;7360785;19;19919;-54
2022/01/05 05:01:53;;;;;;;;;;;;;;;2.01;69.09;100885.88;7362999;19;19962;-55
2022/01/05 05:04:19;;;;;;;;;;;;;;;1.98;68.91;100871.25;7366079;19;20340;-56
2022/01/05 05:06:44;;;;;;;;;;;;;;;2.09;69.15;100894.59;7367109;19;20006;-56
2022/01/05 05:09:09;;;;;;;;;;;;;;;2.13;69.09;100888.66;7365198;19;19923;-55
2022/01/05 05:11:35;;;;;;;;;;;;;;;2.16;68.83;100886.09;7364287;19;19914;-52
2022/01/05 05:14:00;;;;;;;;;;;;;;;2.20;69.27;100893.03;7368792;19;19914;-53
2022/01/05 05:16:25;;;;;;;;;;;;;;;2.24;69.18;100899.97;7362502;19;19951;-54
2022/01/05 05:18:51;;;;;;;;;;;;;;;2.26;68.79;100887.09;7360067;19;19986;-51
2022/01/05 05:21:16;;;;;;;;;;;;;;;2.30;69.08;100897.47;7366580;19;19922;-51
2022/01/05 05:23:42;;;;;;;;;;;;;;;2.33;69.03;100900.09;7364324;19;19926;-56
2022/01/05 05:26:07;;;;;;;;;;;;;;;2.36;69.22;100886.38;7360282;19;19929;-56
2022/01/05 05:28:32;;;;;;;;;;;;;;;2.40;69.22;100897.59;7366075;19;19994;-51
2022/01/05 05:30:57;;;;;;;;;;;;;;;2.41;69.15;100895.03;7359374;19;19978;-56
2022/01/05 05:33:23;;;;;;;;;;;;;;;2.44;68.74;100886.50;7366660;19;21111;-55
2022/01/05 05:35:48;;;;;;;;;;;;;;;2.48;68.88;100895.97;7363279;19;19911;-51
2022/01/05 05:38:15;;;;;;;;;;;;;;;2.50;68.95;100902.03;7362784;19;19948;-53
2022/01/05 05:40:41;;;;;;;;;;;;;;;2.52;69.19;100898.63;7364459;19;19915;-54
2022/01/05 05:43:06;;;;;;;;;;;;;;;2.55;69.01;100903.84;7365094;19;19919;-54
2022/01/05 05:45:32;;;;;;;;;;;;;;;2.57;69.15;100896.09;7364308;19;19919;-56
2022/01/05 05:47:57;;;;;;;;;;;;;;;2.59;68.94;100897.00;7364622;19;19919;-55
2022/01/05 05:50:25;;;;;;;;;;;;;;;2.60;69.05;100896.16;7359605;19;20338;-54
2022/01/05 05:52:50;;;;;;;;;;;;;;;2.61;68.62;100887.56;7365334;19;20467;-51
2022/01/05 05:55:16;;;;;;;;;;;;;;;2.61;68.77;100895.31;7359946;19;19933;-50
2022/01/05 05:57:42;;;;;;;;;;;;;;;2.62;69.01;100899.59;7364253;19;19959;-51
2022/01/05 06:00:08;;;;;;;;;;;;;;;2.63;68.58;100896.19;7361429;19;19978;-52
2022/01/05 06:02:33;;;;;;;;;;;;;;;2.63;68.81;100901.34;7359467;19;19923;-55
2022/01/05 06:04:58;;;;;;;;;;;;;;;2.63;68.75;100901.34;7364245;19;20772;-56
2022/01/05 06:07:24;;;;;;;;;;;;;;;2.64;68.87;100897.94;7359491;19;19935;-55
2022/01/05 06:09:49;;;;;;;;;;;;;;;2.64;68.75;100904.81;7365094;19;19944;-53
2022/01/05 06:12:14;;;;;;;;;;;;;;;2.63;68.55;100909.06;7364513;19;19918;-57
2022/01/05 06:14:40;;;;;;;;;;;;;;;2.63;68.70;100908.22;7363937;19;19926;-55
2022/01/05 06:17:05;;;;;;;;;;;;;;;2.59;68.75;100909.91;7363776;19;19922;-54
2022/01/05 06:19:31;;;;;;;;;;;;;;;2.56;68.42;100920.16;7364605;19;19918;-54
2022/01/05 06:21:57;;;;;;;;;;;;;;;2.52;68.36;100914.09;7361752;19;19915;-51
2022/01/05 06:24:22;;;;;;;;;;;;;;;2.48;68.63;100907.16;7362000;19;20320;-56
2022/01/05 06:26:48;;;;;;;;;;;;;;;2.43;68.10;100913.09;7360940;19;19951;-55
2022/01/05 06:29:13;;;;;;;;;;;;;;;2.38;68.24;100910.44;7365500;19;19915;-53
2022/01/05 06:31:39;;;;;;;;;;;;;;;2.32;68.47;100900.06;7358374;19;19919;-53
2022/01/05 06:34:04;;;;;;;;;;;;;;;2.26;68.32;100906.00;7362839;19;19991;-54
2022/01/05 06:36:30;;;;;;;;;;;;;;;2.21;67.94;100917.94;7359167;19;19922;-55
2022/01/05 06:38:55;;;;;;;;;;;;;;;2.16;68.16;100926.44;7363819;19;19918;-54
2022/01/05 06:41:20;;;;;;;;;;;;;;;2.11;68.25;100926.38;7358577;19;19935;-56
2022/01/05 06:43:45;;;;;;;;;;;;;;;2.06;68.32;100938.31;7357392;19;20320;-54
2022/01/05 06:46:11;;;;;;;;;;;;;;;2.01;68.36;100924.50;7363172;19;19921;-52
2022/01/05 06:48:36;;;;;;;;;;;;;;;1.97;68.33;100933.03;7360516;19;19919;-54
2022/01/05 06:51:01;;;;;;;;;;;;;;;1.92;68.22;100934.66;7365301;19;19919;-52
2022/01/05 06:53:27;;;;;;;;;;;;;;;1.90;68.29;100936.34;7361625;19;19941;-52
2022/01/05 06:55:53;;;;;;;;;;;;;;;1.87;68.41;100944.00;7359569;19;19917;-55
2022/01/05 06:58:18;;;;;;;;;;;;;;;1.85;68.38;100945.72;7359338;19;19998;-55
2022/01/05 07:00:43;;;;;;;;;;;;;;;1.81;68.50;100940.50;7361857;19;19907;-52
2022/01/05 07:03:10;;;;;;;;;;;;;;;1.80;68.66;100946.50;7362070;19;20540;-55
2022/01/05 07:05:35;;;;;;;;;;;;;;;1.78;68.47;100958.50;7361715;19;19962;-53
2022/01/05 07:08:01;;;;;;;;;;;;;;;1.76;68.92;100955.00;7362634;19;19919;-54
2022/01/05 07:10:26;;;;;;;;;;;;;;;1.74;68.99;100960.97;7361384;19;20551;-51
2022/01/05 07:12:52;;;;;;;;;;;;;;;1.72;68.96;100963.50;7363189;19;19922;-51
2022/01/05 07:15:17;;;;;;;;;;;;;;;1.71;68.69;100966.06;7364655;19;19918;-56
2022/01/05 07:17:42;;;;;;;;;;;;;;;1.69;68.67;100965.19;7368448;19;20428;-55
2022/01/05 07:20:08;;;;;;;;;;;;;;;1.68;68.94;100969.47;7369782;19;19925;-51
2022/01/05 07:22:33;;;;;;;;;;;;;;;1.66;68.80;100973.69;7366166;19;19930;-54
2022/01/05 07:24:59;;;;;;;;;;;;;;;1.65;68.96;100982.28;7368058;19;20659;-56
2022/01/05 07:27:24;;;;;;;;;;;;;;;1.63;68.78;100989.09;7366952;19;19913;-51
2022/01/05 07:29:50;;;;;;;;;;;;;;;1.63;68.61;100993.41;7367062;19;19922;-54
2022/01/05 07:32:15;;;;;;;;;;;;;;;1.61;68.95;101000.19;7366839;19;19918;-55
2022/01/05 07:34:41;;;;;;;;;;;;;;;1.62;68.86;101001.94;7367883;19;19935;-53
2022/01/05 07:37:06;;;;;;;;;;;;;;;1.61;69.02;101015.66;7367326;19;19911;-50
2022/01/05 07:39:32;;;;;;;;;;;;;;;1.58;68.70;101006.19;7366661;19;19919;-50
2022/01/05 07:41:57;;;;;;;;;;;;;;;1.58;69.10;101010.47;7365554;19;19936;-53
2022/01/05 07:44:22;;;;;;;;;;;;;;;1.58;69.00;101015.59;7362638;19;19914;-54
2022/01/05 07:46:47;;;;;;;;;;;;;;;1.54;68.74;101014.66;7361182;19;19960;-51
2022/01/05 07:49:13;;;;;;;;;;;;;;;1.55;68.80;101026.69;7367489;19;19939;-52
2022/01/05 07:51:38;;;;;;;;;;;;;;;1.54;68.91;101032.69;7365501;19;19938;-52
2022/01/05 07:54:03;;;;;;;;;;;;;;;1.54;69.32;101041.28;7365244;19;19918;-53
2022/01/05 07:56:29;;;;;;;;;;;;;;;1.56;69.11;101038.72;7364806;19;19918;-53
2022/01/05 07:58:54;;;;;;;;;;;;;;;1.60;69.40;101040.53;7346476;19;19915;-51
2022/01/05 08:01:20;;;;;;;;;;;;;;;1.62;69.77;101036.25;7370365;19;20336;-52
2022/01/05 08:03:46;;;;;;;;;;;;;;;1.61;69.40;101034.53;7369179;19;19942;-49
2022/01/05 08:06:11;;;;;;;;;;;;;;;1.72;69.63;101040.75;7367110;19;20387;-57
2022/01/05 08:08:36;;;;;;;;;;;;;;;1.78;69.85;101040.00;7359121;19;20363;-53
2022/01/05 08:11:02;;;;;;;;;;;;;;;1.84;69.77;101044.41;7366576;19;20344;-52
2022/01/05 08:13:27;;;;;;;;;;;;;;;1.90;69.69;101044.50;7362863;19;19921;-53
2022/01/05 08:15:52;;;;;;;;;;;;;;;1.95;69.72;101058.34;7364399;19;20621;-52
2022/01/05 08:18:18;;;;;;;;;;;;;;;2.01;69.72;101068.75;7366964;19;19918;-56
2022/01/05 08:20:43;;;;;;;;;;;;;;;2.07;69.69;101076.56;7360396;19;19991;-56
2022/01/05 08:23:09;;;;;;;;;;;;;;;2.12;69.83;101080.09;7360557;19;19919;-51
2022/01/05 08:25:34;;;;;;;;;;;;;;;2.17;69.94;101088.78;7360378;19;19942;-57
2022/01/05 08:27:59;;;;;;;;;;;;;;;2.23;69.58;101085.44;7366469;19;19919;-55
2022/01/05 08:30:25;;;;;;;;;;;;;;;2.27;69.69;101088.09;7365302;19;19922;-55
2022/01/05 08:32:52;;;;;;;;;;;;;;;2.32;69.52;101090.75;7359791;19;20735;-53
2022/01/05 08:35:22;;;;;;;;;;;;;;;2.38;69.76;101095.13;7360885;19;20391;-54
2022/01/05 08:37:48;;;;;;;;;;;;;;;2.41;69.83;101103.81;7363062;19;20005;-53
2022/01/05 08:40:18;;;;;;;;;;;;;;;2.46;69.88;101103.88;7367098;19;19927;-51
2022/01/05 08:42:43;;;;;;;;;;;;;;;2.50;69.67;101101.38;7364745;19;19919;-54
2022/01/05 08:45:09;;;;;;;;;;;;;;;2.54;69.90;101104.88;7362323;19;19929;-55
2022/01/05 08:47:34;;;;;;;;;;;;;;;2.57;69.53;101110.06;7358293;19;19919;-55
2022/01/05 08:50:00;;;;;;;;;;;;;;;2.60;69.81;101102.41;7364711;19;19922;-57
2022/01/05 08:52:25;;;;;;;;;;;;;;;2.65;69.67;101110.22;7366218;19;20272;-51
2022/01/05 08:54:50;;;;;;;;;;;;;;;2.68;69.55;101105.09;7358740;19;19915;-51
2022/01/05 08:57:17;;;;;;;;;;;;;;;2.70;69.74;101104.28;7368761;19;20013;-53
2022/01/05 08:59:43;;;;;;;;;;;;;;;2.72;69.47;101115.47;7356042;19;19926;-53
2022/01/05 09:02:08;;;;;;;;;;;;;;;2.74;69.42;101126.72;7368846;19;19926;-52
2022/01/05 09:04:33;;;;;;;;;;;;;;;2.76;69.44;101137.91;7354217;19;19923;-55
2022/01/05 09:07:00;;;;;;;;;;;;;;;2.78;69.60;101137.91;7365882;19;19950;-52
2022/01/05 09:09:25;;;;;;;;;;;;;;;2.81;69.45;101133.69;7366367;19;19918;-53
2022/01/05 09:11:50;;;;;;;;;;;;;;;2.81;69.37;101144.00;7355942;19;20347;-52
2022/01/05 09:14:15;;;;;;;;;;;;;;;2.84;69.21;101148.34;7367789;19;20389;-51
2022/01/05 09:16:41;;;;;;;;;;;;;;;2.85;69.36;101140.63;7357884;19;19918;-56
2022/01/05 09:19:06;;;;;;;;;;;;;;;2.86;69.44;101147.53;7357320;19;19956;-55
2022/01/05 09:21:32;;;;;;;;;;;;;;;2.88;69.00;101146.66;7366589;19;19923;-55
2022/01/05 09:23:57;;;;;;;;;;;;;;;2.87;69.11;101153.53;7365041;19;19918;-57
2022/01/05 09:26:22;;;;;;;;;;;;;;;2.85;69.21;101153.53;7361366;19;19914;-51
2022/01/05 09:28:49;;;;;;;;;;;;;;;2.86;69.20;101151.81;7360743;19;19927;-53
2022/01/05 09:31:14;;;;;;;;;;;;;;;2.87;69.01;101148.38;7366792;19;19933;-53
2022/01/05 09:33:40;;;;;;;;;;;;;;;2.92;69.65;101151.91;7360301;19;19923;-52
2022/01/05 09:36:13;;;;;;;;;;;;;;;3.00;69.79;101164.94;7362581;19;19940;-53
2022/01/05 09:43:56;;;;;;;;;;;;;;;3.34;69.83;101149.06;7363432;19;19929;-52
2022/01/05 09:46:30;;;;;;;;;;;;;;;3.47;70.12;101151.84;7360474;19;20630;-52
2022/01/05 09:48:58;;;;;;;;;;;;;;;3.59;69.81;101160.59;7366437;19;20465;-53
2022/01/05 09:51:24;;;;;;;;;;;;;;;3.71;70.00;101175.41;7365942;19;19915;-54
2022/01/05 09:53:51;;;;;;;;;;;;;;;3.83;69.65;101183.31;7351104;19;19926;-53
2022/01/05 09:56:16;;;;;;;;;;;;;;;3.97;69.74;101185.22;7363815;19;20336;-52
2022/01/05 09:58:42;;;;;;;;;;;;;;;4.14;70.20;101183.66;7360243;19;19926;-53
2022/01/05 10:01:08;;;;;;;;;;;;;;;4.37;70.06;101197.72;7364868;19;19919;-53
2022/01/05 10:03:33;;;;;;;;;;;;;;;4.62;70.31;101203.16;7365338;19;19933;-55
2022/01/05 10:06:00;;;;;;;;;;;;;;;4.82;69.83;101203.34;7364363;19;19939;-54
2022/01/05 10:08:25;;;;;;;;;;;;;;;4.98;69.68;101201.75;7356637;19;19926;-50
2022/01/05 10:10:50;;;;;;;;;;;;;;;5.11;69.60;101203.56;7363186;19;19906;-55
2022/01/05 10:13:16;;;;;;;;;;;;;;;5.26;70.00;101206.25;7354592;19;19919;-51
2022/01/05 10:15:41;;;;;;;;;;;;;;;5.45;69.89;101210.72;7359173;19;19943;-55
2022/01/05 10:18:10;;;;;;;;;;;;;;;5.72;69.89;101215.19;7355108;19;19914;-55
2022/01/05 10:20:35;;;;;;;;;;;;;;;6.05;69.97;101216.25;7365529;19;20114;-55
2022/01/05 10:23:01;;;;;;;;;;;;;;;6.38;70.37;101219.81;7361014;19;19919;-53
2022/01/05 10:25:26;;;;;;;;;;;;;;;6.73;69.76;101225.06;7356701;19;19914;-54
2022/01/05 10:27:58;;;;;;;;;;;;;;;7.03;69.65;101225.09;7358905;19;19968;-53
2022/01/05 10:30:40;;;;;;;;;;;;;;;7.37;69.70;101240.69;7366404;19;19933;-56
2022/01/05 10:33:06;;;;;;;;;;;;;;;7.71;69.26;101238.03;7354659;19;19930;-53
2022/01/05 10:35:32;;;;;;;;;;;;;;;8.01;68.72;101239.69;7366359;19;19915;-54
2022/01/05 10:37:59;;;;;;;;;;;;;;;8.27;68.24;101223.97;7362203;19;20446;-56
2022/01/05 10:40:24;;;;;;;;;;;;;;;8.47;68.14;101229.97;7362229;19;20336;-55
2022/01/05 10:42:51;;;;;;;;;;;;;;;8.66;67.60;101242.84;7361697;19;19919;-52
2022/01/05 10:45:18;;;;;;;;;;;;;;;8.86;68.18;101248.78;7360224;19;19946;-56
2022/01/05 10:48:00;;;;;;;;;;;;;;;9.03;68.06;101252.16;7361519;19;19926;-57
2022/01/05 10:50:26;;;;;;;;;;;;;;;9.13;67.44;101257.31;7369964;19;19969;-57
2022/01/05 10:52:53;;;;;;;;;;;;;;;9.19;66.78;101267.66;7361141;19;19947;-56
2022/01/05 10:55:19;;;;;;;;;;;;;;;9.17;66.38;101269.41;7368172;19;20480;-51
2022/01/05 10:58:03;;;;;;;;;;;;;;;9.12;66.19;101260.75;7367580;19;20326;-55
2022/01/05 11:00:35;;;;;;;;;;;;;;;9.02;65.82;101260.84;7364103;19;20984;-55
2022/01/05 11:03:01;;;;;;;;;;;;;;;8.93;65.77;101253.09;7363416;19;20374;-53
2022/01/05 11:05:26;;;;;;;;;;;;;;;8.82;65.59;101252.31;7369043;19;19919;-53
2022/01/05 11:08:05;;;;;;;;;;;;;;;8.71;65.70;101261.91;7370200;19;19929;-52
2022/01/05 11:10:30;;;;;;;;;;;;;;;8.57;65.94;101257.66;7362189;19;19919;-54
2022/01/05 11:12:55;;;;;;;;;;;;;;;8.42;65.79;101277.72;7361778;19;19921;-54
2022/01/05 11:15:21;;;;;;;;;;;;;;;8.18;65.38;101263.88;7368773;19;19918;-56
2022/01/05 11:18:04;;;;;;;;;;;;;;;8.14;65.54;101271.69;7368082;19;19914;-53
2022/01/05 11:20:29;;;;;;;;;;;;;;;8.00;65.60;101290.81;7365826;19;19933;-52
2022/01/05 11:22:55;;;;;;;;;;;;;;;7.89;65.91;101284.78;7366546;19;19922;-53
2022/01/05 11:25:20;;;;;;;;;;;;;;;7.80;65.67;101284.78;7365075;19;19937;-57
2022/01/05 11:27:45;;;;;;;;;;;;;;;7.72;66.04;101289.16;7362322;19;19918;-55
2022/01/05 11:30:11;;;;;;;;;;;;;;;7.68;66.11;101295.22;7368163;19;20225;-51
2022/01/05 11:32:37;;;;;;;;;;;;;;;7.62;65.84;101297.84;7368748;19;19919;-54
2022/01/05 11:35:07;;;;;;;;;;;;;;;7.58;66.20;101307.34;7363837;19;19937;-52
2022/01/05 11:37:32;;;;;;;;;;;;;;;7.53;65.82;101307.34;7368546;19;19990;-51
2022/01/05 11:39:57;;;;;;;;;;;;;;;7.50;66.19;101309.97;7368517;19;19941;-53
2022/01/05 11:42:28;;;;;;;;;;;;;;;7.49;66.46;101308.22;7359435;19;20233;-55
2022/01/05 11:44:57;;;;;;;;;;;;;;;7.47;66.26;101315.16;7361625;19;19922;-55
2022/01/05 11:47:26;;;;;;;;;;;;;;;7.47;66.52;101319.50;7368791;19;19926;-54
2022/01/05 11:49:53;;;;;;;;;;;;;;;7.48;66.05;101306.50;7367596;19;19934;-52
2022/01/05 11:52:18;;;;;;;;;;;;;;;7.50;66.42;101312.56;7365611;19;20336;-50
2022/01/05 11:55:04;;;;;;;;;;;;;;;7.56;66.22;101313.44;7357655;19;19923;-56
2022/01/05 11:57:30;;;;;;;;;;;;;;;7.61;66.65;101322.09;7368864;19;20025;-55
2022/01/05 12:00:14;;;;;;;;;;;;;;;7.64;66.29;101316.88;7357167;19;20006;-56
2022/01/05 12:02:40;;;;;;;;;;;;;;;7.69;66.77;101326.41;7362033;19;20278;-51
2022/01/05 12:05:06;;;;;;;;;;;;;;;7.71;66.47;101336.81;7368275;19;19918;-52
2022/01/05 12:07:45;;;;;;;;;;;;;;;7.73;66.21;101332.47;7367464;19;19918;-53
2022/01/05 12:10:21;;;;;;;;;;;;;;;7.75;66.50;101329.00;7362040;19;20331;-53
2022/01/05 12:13:03;;;;;;;;;;;;;;;7.79;66.04;101327.25;7361556;19;19911;-55
2022/01/05 12:15:45;;;;;;;;;;;;;;;7.86;65.98;101334.19;7361277;19;20324;-53
2022/01/05 12:18:11;;;;;;;;;;;;;;;7.93;66.07;101335.06;7367118;19;19919;-54
2022/01/05 12:20:40;;;;;;;;;;;;;;;8.00;66.20;101332.41;7367313;19;20246;-54
2022/01/05 12:23:17;;;;;;;;;;;;;;;8.09;66.03;101333.28;7369845;19;20332;-52
2022/01/05 12:26:01;;;;;;;;;;;;;;;8.15;65.71;101330.66;7360716;19;19914;-48
2022/01/05 12:28:30;;;;;;;;;;;;;;;8.22;66.26;101332.38;7360528;19;19914;-52
2022/01/05 12:30:55;;;;;;;;;;;;;;;8.31;65.82;101345.34;7360197;19;19922;-54
2022/01/05 12:33:21;;;;;;;;;;;;;;;8.36;65.60;101350.53;7358164;19;19927;-51
2022/01/05 12:35:48;;;;;;;;;;;;;;;8.42;65.42;101346.25;7369381;19;19918;-54
2022/01/05 12:38:34;;;;;;;;;;;;;;;8.47;65.45;101343.63;7356229;19;19974;-54
2022/01/05 12:41:19;;;;;;;;;;;;;;;8.52;65.42;101337.53;7366890;19;19927;-57
2022/01/05 12:43:45;;;;;;;;;;;;;;;8.58;65.40;101321.88;7358878;19;20507;-52
2022/01/05 12:46:12;;;;;;;;;;;;;;;8.65;65.34;101332.25;7359097;19;19970;-56
2022/01/05 12:48:39;;;;;;;;;;;;;;;8.71;65.17;101335.69;7366616;19;19910;-54